Terminal Aerodrome Forecast
Issued by NWS Tampa Bay Area, FL

Current Version | Previous Version | Text Only | Print | Product List | Glossary On
Versions: 1 2 3 4 5 6 7 8 9 10 11 12 13 14 15 16 17 18 19 20 21 22 23 24 25 26 27 28
000
FTUS42 KTBW 300500
TAFTPA
TAF
KTPA 300540Z 3006/3106 31004KT P6SM SCT020 SCT250
     FM301000 34004KT P6SM FEW020 SCT250
     FM301400 VRB04KT P6SM SCT025 SCT250
     FM301600 25006KT P6SM SCT035 SCT250
     FM301800 27010KT P6SM SCT040 SCT250
     FM302300 30006KT P6SM FEW040 SCT250
     FM310300 VRB03KT P6SM SCT250=

USA.gov is the U.S. government's official web portal to all federal, state and local government web resources and services.